Terminal Aerodrome Forecast
Issued by NWS

Home | Current Version | Previous Version | Text Only | Print | Product List | Glossary On
Versions: 1 2 3 4 5 6 7 8 9 10 11 12 13 14 15 16 17 18 19 20 21 22 23 24 25
000
FTUS41 KRLX 042328
TAFCKB
TAF
KCKB 042328Z 0500/0524 27005KT P6SM FEW050
     FM050200 00000KT P6SM FEW060
     FM050800 00000KT 5SM BR FEW050
     FM051300 00000KT P6SM FEW050
     FM051600 28006KT P6SM SCT050=

USA.gov is the U.S. government's official web portal to all federal, state and local government web resources and services.